Time;durP1;ratioP1;P1;durP2;ratioP2;P2;SDS_P1;SDS_P2;PMS_P1;PMS_P2;Temp;Humidity;BMP_temperature;BMP_pressure;BME280_temperature;BME280_humidity;BME280_pressure;Samples;Min_cycle;Max_cycle;Signal;HPM_P1;HPM_P2
2022/11/15 00:00:05;;;;;;;12.35;8.05;;;;;;;3.21;100.00;95768.69;1038442;28;20087;-71
2022/11/15 00:00:35;;;;;;;14.07;9.20;;;;;;;3.10;100.00;95761.66;1037984;28;20115;-70
2022/11/15 00:01:16;;;;;;;13.07;7.88;;;;;;;3.14;100.00;95770.56;1030543;28;20305;-70
2022/11/15 00:01:46;;;;;;;16.52;8.27;;;;;;;3.06;100.00;95772.44;1030787;28;20038;-70
2022/11/15 00:02:17;;;;;;;12.63;8.43;;;;;;;3.06;100.00;95780.22;1027082;28;20297;-70
2022/11/15 00:02:47;;;;;;;16.05;8.52;;;;;;;2.97;100.00;95762.56;1029186;28;20114;-70
2022/11/15 00:03:20;;;;;;;14.50;8.10;;;;;;;2.94;100.00;95765.56;1030972;28;20022;-70
2022/11/15 00:03:51;;;;;;;12.95;8.30;;;;;;;2.97;100.00;95767.75;1030735;28;20404;-70
2022/11/15 00:04:21;;;;;;;14.77;8.50;;;;;;;2.98;100.00;95779.69;1030806;28;21143;-69
2022/11/15 00:04:52;;;;;;;13.57;7.88;;;;;;;3.06;100.00;95780.22;1030929;28;20257;-71
2022/11/15 00:05:22;;;;;;;15.70;8.55;;;;;;;3.10;100.00;95769.41;1034631;28;20368;-70
2022/11/15 00:05:53;;;;;;;16.05;8.82;;;;;;;3.07;100.00;95765.44;1038950;28;20017;-69
2022/11/15 00:06:23;;;;;;;16.58;8.50;;;;;;;2.98;100.00;95764.91;1030360;28;20777;-70
2022/11/15 00:06:53;;;;;;;13.82;8.38;;;;;;;3.05;100.00;95781.22;1026424;28;20058;-71
2022/11/15 00:07:24;;;;;;;13.88;8.57;;;;;;;3.05;100.00;95770.88;1030452;28;20054;-69
2022/11/15 00:07:54;;;;;;;15.63;8.48;;;;;;;3.06;100.00;95777.63;1030473;28;20069;-70
2022/11/15 00:08:26;;;;;;;13.55;8.10;;;;;;;3.08;100.00;95772.22;1022345;29;20023;-70
2022/11/15 00:09:00;;;;;;;13.95;9.23;;;;;;;3.05;100.00;95768.28;1023685;28;20018;-70
2022/11/15 00:09:30;;;;;;;14.75;8.98;;;;;;;3.04;100.00;95779.63;1022506;29;20277;-70
2022/11/15 00:10:00;;;;;;;17.02;10.10;;;;;;;2.93;100.00;95762.19;1023738;28;20278;-70
2022/11/15 00:10:31;;;;;;;15.13;8.82;;;;;;;2.89;100.00;95760.25;1028242;28;20027;-69
2022/11/15 00:11:02;;;;;;;15.55;9.13;;;;;;;2.93;100.00;95771.78;1034481;28;20033;-70
2022/11/15 00:11:33;;;;;;;14.77;9.13;;;;;;;2.90;100.00;95770.38;1030556;28;20475;-68
2022/11/15 00:12:03;;;;;;;12.50;7.97;;;;;;;2.93;100.00;95771.78;1026665;28;20317;-70
2022/11/15 00:12:34;;;;;;;15.98;9.18;;;;;;;2.91;100.00;95769.38;1022015;28;20023;-70
2022/11/15 00:13:10;;;;;;;13.43;8.98;;;;;;;2.89;100.00;95766.22;1022633;28;20524;-70
2022/11/15 00:13:41;;;;;;;14.07;9.10;;;;;;;2.92;100.00;95770.97;1027376;28;20094;-70
2022/11/15 00:14:11;;;;;;;16.75;9.10;;;;;;;2.94;100.00;95766.38;1035007;28;21099;-69
2022/11/15 00:14:42;;;;;;;15.25;9.20;;;;;;;2.94;100.00;95768.94;1027136;28;20026;-69
2022/11/15 00:15:12;;;;;;;15.25;9.18;;;;;;;2.98;100.00;95774.50;1026717;28;20556;-71
2022/11/15 00:15:43;;;;;;;17.25;9.52;;;;;;;2.98;100.00;95772.69;1026301;28;20083;-70
2022/11/15 00:16:13;;;;;;;16.20;9.23;;;;;;;3.01;100.00;95766.31;1022524;29;20020;-69
2022/11/15 00:16:44;;;;;;;17.88;9.30;;;;;;;2.90;100.00;95757.44;1022829;28;20023;-70
2022/11/15 00:17:14;;;;;;;15.95;9.98;;;;;;;2.95;100.00;95765.38;1022889;28;20166;-68
2022/11/15 00:17:48;;;;;;;16.05;9.82;;;;;;;2.91;100.00;95759.00;1026471;28;20492;-70
2022/11/15 00:18:19;;;;;;;19.33;9.32;;;;;;;2.90;100.00;95756.66;1018930;29;20027;-70
2022/11/15 00:18:49;;;;;;;18.80;9.98;;;;;;;2.86;100.00;95761.47;1018936;29;21389;-70
2022/11/15 00:19:20;;;;;;;18.73;9.82;;;;;;;2.82;100.00;95760.31;1023587;28;20119;-69
2022/11/15 00:19:50;;;;;;;17.75;10.65;;;;;;;2.76;100.00;95756.75;1027001;28;20517;-70
2022/11/15 00:20:21;;;;;;;16.30;10.18;;;;;;;2.76;100.00;95756.75;1022415;28;20031;-70
2022/11/15 00:20:51;;;;;;;16.92;9.48;;;;;;;2.76;100.00;95756.75;1028645;28;20015;-70
2022/11/15 00:21:22;;;;;;;17.63;10.48;;;;;;;2.72;100.00;95760.78;1026461;28;20119;-70
2022/11/15 00:21:52;;;;;;;16.67;9.18;;;;;;;2.69;100.00;95758.63;1026443;28;20019;-69
2022/11/15 00:22:22;;;;;;;14.55;9.93;;;;;;;2.69;100.00;95757.84;1030698;28;20022;-67
2022/11/15 00:22:53;;;;;;;19.52;10.82;;;;;;;2.60;100.00;95742.53;1034267;28;20515;-70
2022/11/15 00:23:23;;;;;;;15.52;9.65;;;;;;;2.66;100.00;95755.66;1030379;28;20030;-70
2022/11/15 00:23:54;;;;;;;16.63;9.45;;;;;;;2.66;100.00;95753.06;1030478;28;20680;-70
2022/11/15 00:24:24;;;;;;;14.05;9.15;;;;;;;2.66;100.00;95760.84;1030017;28;20045;-69
2022/11/15 00:24:55;;;;;;;14.15;9.48;;;;;;;2.66;100.00;95753.06;1034542;28;20014;-70
2022/11/15 00:25:27;;;;;;;16.05;9.27;;;;;;;2.65;100.00;95759.25;1042621;28;20055;-69
2022/11/15 00:25:58;;;;;;;16.45;8.52;;;;;;;2.52;100.00;95742.81;1038299;28;20025;-70
2022/11/15 00:26:28;;;;;;;12.75;8.50;;;;;;;2.59;100.00;95753.13;1030979;28;20663;-69
2022/11/15 00:26:59;;;;;;;14.80;8.77;;;;;;;2.57;100.00;95758.50;1030258;28;20290;-68
2022/11/15 00:27:29;;;;;;;13.55;8.20;;;;;;;2.42;100.00;95745.09;1027668;28;20787;-69
2022/11/15 00:28:00;;;;;;;13.88;8.25;;;;;;;2.44;100.00;95748.25;1022654;28;20078;-69
2022/11/15 00:28:30;;;;;;;18.45;9.18;;;;;;;2.45;100.00;95754.22;1026431;28;20035;-69
2022/11/15 00:29:01;;;;;;;14.57;8.45;;;;;;;2.45;100.00;95759.38;1022772;28;20488;-70
2022/11/15 00:29:31;;;;;;;14.70;8.77;;;;;;;2.41;100.00;95760.81;1030164;28;20019;-68
2022/11/15 00:30:02;;;;;;;14.80;8.85;;;;;;;2.31;100.00;95746.56;1030310;28;20026;-70
2022/11/15 00:30:32;;;;;;;13.38;8.75;;;;;;;2.36;100.00;95761.47;1030222;28;20015;-70
2022/11/15 00:31:04;;;;;;;16.08;9.10;;;;;;;2.36;100.00;95756.28;1030104;28;20018;-69
2022/11/15 00:31:35;;;;;;;14.65;8.80;;;;;;;2.35;100.00;95754.72;1035407;28;20021;-69
2022/11/15 00:32:05;;;;;;;11.15;7.82;;;;;;;2.33;100.00;95754.91;1042586;28;20760;-71
2022/11/15 00:32:36;;;;;;;13.95;8.27;;;;;;;2.38;100.00;95753.47;1040741;28;20556;-69
2022/11/15 00:33:06;;;;;;;14.48;8.65;;;;;;;2.33;100.00;95749.72;1040119;28;20060;-69
2022/11/15 00:33:37;;;;;;;14.65;9.07;;;;;;;2.39;100.00;95755.88;1034349;28;20503;-70
2022/11/15 00:34:08;;;;;;;13.77;8.50;;;;;;;2.41;100.00;95758.22;1034505;28;20100;-68
2022/11/15 00:34:39;;;;;;;16.67;9.63;;;;;;;2.35;100.00;95741.75;1034708;28;20022;-68
2022/11/15 00:35:09;;;;;;;14.80;8.73;;;;;;;2.41;100.00;95755.63;1027057;28;20337;-71
2022/11/15 00:35:40;;;;;;;13.82;8.45;;;;;;;2.35;100.00;95749.53;1034404;28;20725;-69
2022/11/15 00:36:10;;;;;;;15.52;9.57;;;;;;;2.42;100.00;95755.44;1026526;28;20026;-70
2022/11/15 00:36:41;;;;;;;13.98;8.43;;;;;;;2.42;100.00;95757.25;1022216;28;20114;-70
2022/11/15 00:37:11;;;;;;;15.10;9.43;;;;;;;2.41;100.00;95756.44;1022828;28;20489;-70
2022/11/15 00:37:42;;;;;;;13.18;8.10;;;;;;;2.38;100.00;95749.06;1022531;28;20074;-70
2022/11/15 00:38:12;;;;;;;15.02;8.73;;;;;;;2.38;100.00;95749.06;1030393;28;20152;-70
2022/11/15 00:38:43;;;;;;;12.20;8.18;;;;;;;2.39;100.00;95758.47;1026568;28;20023;-69
2022/11/15 00:39:13;;;;;;;16.17;9.15;;;;;;;2.40;100.00;95754.84;1022636;28;20015;-70
2022/11/15 00:39:44;;;;;;;18.92;10.00;;;;;;;2.40;100.00;95756.66;1022459;28;20019;-70
2022/11/15 00:40:14;;;;;;;16.50;10.35;;;;;;;2.41;100.00;95756.44;1026517;28;20026;-69
2022/11/15 00:40:45;;;;;;;15.43;9.48;;;;;;;2.41;100.00;95753.84;1022350;29;20120;-71
2022/11/15 00:41:15;;;;;;;14.85;9.40;;;;;;;2.43;100.00;95757.03;1022797;28;20027;-71
2022/11/15 00:41:46;;;;;;;16.13;10.50;;;;;;;2.42;100.00;95750.28;1026408;28;20742;-70
2022/11/15 00:42:16;;;;;;;16.02;9.85;;;;;;;2.48;100.00;95756.38;1026036;28;20018;-70
2022/11/15 00:42:47;;;;;;;18.23;10.95;;;;;;;2.49;100.00;95751.00;1034651;28;20021;-69
2022/11/15 00:43:17;;;;;;;19.05;9.82;;;;;;;2.48;100.00;95746.84;1027334;28;20436;-69
2022/11/15 00:43:48;;;;;;;21.67;12.10;;;;;;;2.49;100.00;95752.81;1026220;28;20030;-69
2022/11/15 00:44:18;;;;;;;20.35;11.93;;;;;;;2.48;100.00;95752.03;1026880;28;20593;-70
2022/11/15 00:44:49;;;;;;;19.25;11.20;;;;;;;2.41;100.00;95746.06;1030426;28;20101;-69
2022/11/15 00:45:19;;;;;;;16.15;10.35;;;;;;;2.49;100.00;95755.41;1022515;28;20050;-68
2022/11/15 00:45:50;;;;;;;18.40;10.60;;;;;;;2.49;100.00;95751.00;1022240;28;20023;-70
2022/11/15 00:46:20;;;;;;;16.52;9.82;;;;;;;2.47;100.00;95750.41;1026347;28;20101;-69
2022/11/15 00:46:50;;;;;;;14.02;9.52;;;;;;;2.49;100.00;95753.59;1030513;28;20024;-70
2022/11/15 00:47:21;;;;;;;16.65;9.55;;;;;;;2.45;100.00;95746.44;1030214;28;20030;-69
2022/11/15 00:47:51;;;;;;;16.98;9.73;;;;;;;2.49;100.00;95752.81;1030302;28;20033;-70
2022/11/15 00:48:22;;;;;;;15.80;9.63;;;;;;;2.49;100.00;95750.22;1030363;28;20077;-70
2022/11/15 00:48:52;;;;;;;19.75;10.70;;;;;;;2.52;100.00;95745.41;1034506;28;20610;-69
2022/11/15 00:49:23;;;;;;;20.77;11.18;;;;;;;2.54;100.00;95752.94;1033817;28;20010;-69
2022/11/15 00:49:53;;;;;;;16.85;10.63;;;;;;;2.52;100.00;95745.41;1029328;28;20015;-69
2022/11/15 00:50:24;;;;;;;17.83;10.70;;;;;;;2.57;100.00;95748.13;1030414;28;20049;-69
2022/11/15 00:50:54;;;;;;;18.33;11.23;;;;;;;2.59;100.00;95748.72;1034411;28;20014;-69
2022/11/15 00:51:24;;;;;;;18.90;11.05;;;;;;;2.65;100.00;95746.28;1030488;28;20504;-70
2022/11/15 00:51:55;;;;;;;17.58;10.82;;;;;;;2.64;100.00;95750.69;1030047;28;20023;-70
2022/11/15 00:52:25;;;;;;;17.90;11.07;;;;;;;2.66;100.00;95742.72;1025522;28;20027;-70
2022/11/15 00:52:56;;;;;;;16.75;10.60;;;;;;;2.68;100.00;95740.69;1026175;28;20113;-70
2022/11/15 00:53:26;;;;;;;17.30;11.45;;;;;;;2.69;100.00;95739.69;1026282;28;20038;-70
2022/11/15 00:53:57;;;;;;;15.68;9.52;;;;;;;2.71;100.00;95742.84;1030393;28;20476;-69
2022/11/15 00:54:27;;;;;;;17.52;10.75;;;;;;;2.71;100.00;95748.81;1038415;28;20021;-70
2022/11/15 00:54:58;;;;;;;16.67;9.15;;;;;;;2.71;100.00;95741.03;1038432;28;20400;-70
2022/11/15 00:55:28;;;;;;;15.02;9.40;;;;;;;2.73;100.00;95741.63;1030113;28;20555;-69
2022/11/15 00:55:59;;;;;;;15.07;9.50;;;;;;;2.77;100.00;95742.00;1030004;28;20023;-70
2022/11/15 00:56:29;;;;;;;14.82;9.20;;;;;;;2.74;100.00;95738.03;1026267;28;20027;-68
2022/11/15 00:57:00;;;;;;;15.20;9.15;;;;;;;2.77;100.00;95736.81;1022201;28;20031;-69
2022/11/15 00:57:30;;;;;;;16.40;10.57;;;;;;;2.77;100.00;95731.63;1022247;28;20015;-69
2022/11/15 00:58:01;;;;;;;15.55;9.40;;;;;;;2.77;100.00;95742.00;1026212;28;20058;-70
2022/11/15 00:58:31;;;;;;;14.60;9.45;;;;;;;2.78;100.00;95746.16;1026384;28;20401;-70
2022/11/15 00:59:02;;;;;;;16.02;9.25;;;;;;;2.78;100.00;95741.81;1026349;28;20054;-70
2022/11/15 00:59:32;;;;;;;14.50;9.00;;;;;;;2.75;100.00;95744.00;1026224;28;20049;-70
2022/11/15 01:00:03;;;;;;;16.15;9.05;;;;;;;2.77;100.00;95742.00;1026276;28;20039;-69
2022/11/15 01:00:33;;;;;;;14.85;9.18;;;;;;;2.74;100.00;95727.69;1029729;28;20097;-70
2022/11/15 01:01:12;;;;;;;14.00;9.05;;;;;;;2.78;100.00;95741.81;1030369;28;20034;-70
2022/11/15 01:01:42;;;;;;;16.45;9.52;;;;;;;2.78;100.00;95741.00;1030444;28;20121;-69
2022/11/15 01:02:13;;;;;;;16.05;8.98;;;;;;;2.80;100.00;95739.78;1032419;28;20636;-69
2022/11/15 01:02:43;;;;;;;13.70;8.30;;;;;;;2.76;100.00;95730.06;1030072;28;20487;-69
2022/11/15 01:03:13;;;;;;;14.45;9.45;;;;;;;2.80;100.00;95739.78;1026640;28;20023;-69
2022/11/15 01:03:44;;;;;;;16.67;9.23;;;;;;;2.77;100.00;95736.81;1027467;28;20216;-69
2022/11/15 01:04:14;;;;;;;16.98;9.27;;;;;;;2.69;100.00;95724.94;1030333;28;20046;-70
2022/11/15 01:04:45;;;;;;;13.80;9.07;;;;;;;2.63;100.00;95714.63;1034441;28;20776;-69
2022/11/15 01:05:15;;;;;;;13.95;9.35;;;;;;;2.76;100.00;95735.25;1034225;28;20072;-69
2022/11/15 01:05:46;;;;;;;13.32;8.60;;;;;;;2.74;100.00;95732.06;1034634;28;20064;-70
2022/11/15 01:06:16;;;;;;;15.98;9.10;;;;;;;2.72;100.00;95732.28;1030415;28;20038;-69
2022/11/15 01:06:47;;;;;;;14.35;9.27;;;;;;;2.64;100.00;95722.19;1038171;28;20017;-69
2022/11/15 01:07:17;;;;;;;14.00;9.40;;;;;;;2.68;100.00;95728.53;1030535;28;20100;-69
2022/11/15 01:07:52;;;;;;;15.27;8.38;;;;;;;2.64;100.00;95721.41;1026278;28;20050;-70
2022/11/15 01:08:22;;;;;;;13.15;8.85;;;;;;;2.67;100.00;95726.94;1022329;29;20004;-69
2022/11/15 01:08:53;;;;;;;13.18;8.43;;;;;;;2.66;100.00;95734.94;1024043;28;20255;-69
2022/11/15 01:09:23;;;;;;;13.68;8.80;;;;;;;2.57;100.00;95717.06;1026901;28;20505;-69
2022/11/15 01:09:54;;;;;;;14.60;8.57;;;;;;;2.64;100.00;95732.53;1030656;28;20023;-69
2022/11/15 01:10:25;;;;;;;14.20;9.15;;;;;;;2.62;100.00;95726.81;1034600;28;20018;-70
2022/11/15 01:11:03;;;;;;;14.00;8.75;;;;;;;2.59;100.00;95720.25;1034240;28;20030;-69
2022/11/15 01:11:33;;;;;;;16.27;9.13;;;;;;;2.60;100.00;95727.00;1031733;28;20261;-69
2022/11/15 01:12:04;;;;;;;14.05;8.45;;;;;;;2.57;100.00;95726.63;1034359;28;20265;-69
2022/11/15 01:12:35;;;;;;;12.80;8.07;;;;;;;2.58;100.00;95729.03;1029809;28;20017;-69
2022/11/15 01:13:05;;;;;;;14.30;8.15;;;;;;;2.58;100.00;95718.66;1026864;28;20038;-68
2022/11/15 01:13:36;;;;;;;15.13;8.95;;;;;;;2.57;100.00;95722.25;1030230;28;20021;-69
2022/11/15 01:14:06;;;;;;;13.68;8.95;;;;;;;2.56;100.00;95718.06;1022614;28;20034;-69
2022/11/15 01:14:37;;;;;;;14.10;8.85;;;;;;;2.55;100.00;95718.31;1026409;28;20672;-69
2022/11/15 01:15:08;;;;;;;13.57;8.48;;;;;;;2.57;100.00;95722.25;1022200;28;20015;-69
2022/11/15 01:15:40;;;;;;;14.50;8.48;;;;;;;2.48;100.00;95705.41;1027909;28;20011;-70
2022/11/15 01:16:12;;;;;;;14.30;8.73;;;;;;;2.49;100.00;95706.97;1034226;28;20092;-70
2022/11/15 01:16:43;;;;;;;14.68;8.73;;;;;;;2.56;100.00;95718.06;1031019;28;20296;-71
2022/11/15 01:17:13;;;;;;;16.30;8.90;;;;;;;2.55;100.00;95713.91;1033925;28;20253;-69
2022/11/15 01:17:44;;;;;;;14.10;8.40;;;;;;;2.56;100.00;95717.28;1030233;28;20484;-69
2022/11/15 01:18:14;;;;;;;13.68;8.68;;;;;;;2.56;100.00;95712.91;1022815;28;20540;-69
2022/11/15 01:18:45;;;;;;;15.00;8.85;;;;;;;2.55;100.00;95715.72;1026131;28;20022;-70
2022/11/15 01:19:16;;;;;;;14.80;8.82;;;;;;;2.54;100.00;95722.66;1029115;28;20065;-69
2022/11/15 01:19:46;;;;;;;14.23;8.63;;;;;;;2.53;100.00;95720.31;1030628;28;20023;-69
2022/11/15 01:20:16;;;;;;;18.75;8.88;;;;;;;2.52;100.00;95718.72;1026291;28;20030;-69
2022/11/15 01:20:47;;;;;;;16.05;9.23;;;;;;;2.44;100.00;95701.63;1028201;28;20026;-69
2022/11/15 01:21:18;;;;;;;14.27;8.70;;;;;;;2.48;100.00;95708.00;1030086;28;20018;-68
2022/11/15 01:21:50;;;;;;;13.13;8.38;;;;;;;2.48;100.00;95727.91;1026356;28;20090;-70
2022/11/15 01:22:20;;;;;;;15.05;8.07;;;;;;;2.48;100.00;95712.34;1030060;28;20265;-68
2022/11/15 01:22:50;;;;;;;14.32;8.77;;;;;;;2.47;100.00;95716.75;1030416;28;20286;-70
2022/11/15 01:23:21;;;;;;;13.02;8.15;;;;;;;2.47;100.00;95721.13;1024835;28;20469;-69
2022/11/15 01:23:55;;;;;;;11.68;8.13;;;;;;;2.46;100.00;95720.34;1030603;28;20014;-70
2022/11/15 01:24:26;;;;;;;13.65;8.63;;;;;;;2.44;100.00;95713.78;1030310;28;20045;-69
2022/11/15 01:24:57;;;;;;;13.50;8.32;;;;;;;2.45;100.00;95717.97;1026575;28;20676;-70
2022/11/15 01:25:27;;;;;;;14.82;8.73;;;;;;;2.44;100.00;95717.16;1018370;29;20268;-70
2022/11/15 01:26:02;;;;;;;14.48;8.07;;;;;;;2.43;100.00;95718.19;1024680;28;20401;-69
2022/11/15 01:26:32;;;;;;;13.73;8.52;;;;;;;2.43;100.00;95720.78;1022734;29;20019;-69
2022/11/15 01:27:03;;;;;;;14.77;8.60;;;;;;;2.42;100.00;95718.41;1018483;29;20349;-70
2022/11/15 01:27:33;;;;;;;15.65;8.30;;;;;;;2.42;100.00;95713.22;1022472;28;20034;-69
2022/11/15 01:28:04;;;;;;;16.88;8.50;;;;;;;2.32;100.00;95703.34;1022583;28;20035;-70
2022/11/15 01:28:35;;;;;;;14.32;8.20;;;;;;;2.39;100.00;95709.25;1022618;28;20609;-70
2022/11/15 01:29:06;;;;;;;15.18;8.85;;;;;;;2.38;100.00;95715.41;1023043;28;20030;-71
2022/11/15 01:29:36;;;;;;;12.15;8.32;;;;;;;2.28;100.00;95692.63;1022159;29;20290;-70
2022/11/15 01:30:08;;;;;;;13.90;8.20;;;;;;;2.33;100.00;95703.13;1026408;28;20034;-70
2022/11/15 01:30:38;;;;;;;13.73;8.38;;;;;;;2.36;100.00;95707.09;1030596;28;20026;-69
2022/11/15 01:31:12;;;;;;;12.02;7.82;;;;;;;2.42;100.00;95714.03;1026255;28;20274;-70
2022/11/15 01:31:43;;;;;;;16.63;8.07;;;;;;;2.48;100.00;95717.53;1022624;29;20023;-70
2022/11/15 01:32:13;;;;;;;13.50;8.07;;;;;;;2.43;100.00;95710.41;1025743;28;20332;-70
2022/11/15 01:32:44;;;;;;;13.10;7.70;;;;;;;2.49;100.00;95712.16;1022752;28;20034;-70
2022/11/15 01:33:14;;;;;;;13.23;8.55;;;;;;;2.50;100.00;95715.53;1026864;28;20026;-69
2022/11/15 01:33:45;;;;;;;13.30;8.55;;;;;;;2.46;100.00;95710.00;1030412;28;20057;-70
2022/11/15 01:34:16;;;;;;;15.40;8.50;;;;;;;2.42;100.00;95708.06;1026378;28;20011;-71
2022/11/15 01:34:46;;;;;;;12.80;8.40;;;;;;;2.45;100.00;95712.78;1027556;28;20415;-70
2022/11/15 01:35:16;;;;;;;13.60;8.40;;;;;;;2.45;100.00;95707.59;1030486;28;20077;-70
2022/11/15 01:35:47;;;;;;;14.43;9.20;;;;;;;2.44;100.00;95716.38;1026682;28;20037;-70
2022/11/15 01:36:21;;;;;;;15.32;8.55;;;;;;;2.42;100.00;95708.06;1034514;28;20030;-69
2022/11/15 01:36:52;;;;;;;13.73;8.68;;;;;;;2.40;100.00;95713.44;1030349;28;20064;-69
2022/11/15 01:37:22;;;;;;;13.57;7.60;;;;;;;2.39;100.00;95714.44;1027096;28;20272;-70
2022/11/15 01:37:53;;;;;;;13.82;8.27;;;;;;;2.29;100.00;95703.75;1030725;28;20022;-69
2022/11/15 01:38:23;;;;;;;15.70;8.35;;;;;;;2.34;100.00;95719.44;1034735;28;20522;-69
2022/11/15 01:38:55;;;;;;;14.85;8.00;;;;;;;2.28;100.00;95709.91;1034652;28;20555;-70
2022/11/15 01:39:26;;;;;;;12.20;8.05;;;;;;;2.29;100.00;95725.25;1026350;28;20036;-70
2022/11/15 01:39:56;;;;;;;13.68;7.85;;;;;;;2.27;100.00;95723.88;1023127;28;20379;-70
2022/11/15 01:40:27;;;;;;;14.77;8.32;;;;;;;2.18;100.00;95718.19;1026688;28;20257;-69
2022/11/15 01:40:57;;;;;;;11.10;7.55;;;;;;;2.21;100.00;95722.13;1030486;28;20022;-70
2022/11/15 01:41:32;;;;;;;12.23;7.30;;;;;;;2.16;100.00;95714.22;1026384;28;20483;-70
2022/11/15 01:42:03;;;;;;;12.40;7.88;;;;;;;2.17;100.00;95718.38;1026167;28;20022;-70
2022/11/15 01:42:33;;;;;;;14.63;7.68;;;;;;;2.15;100.00;95717.78;1025544;28;20293;-69
2022/11/15 01:43:23;;;;;;;13.63;8.30;;;;;;;2.13;100.00;95720.59;1022526;28;20031;-71
2022/11/15 01:44:31;;;;;;;15.40;8.55;;;;;;;2.10;100.00;95719.22;1021087;29;20090;-70
2022/11/15 01:45:01;;;;;;;13.80;7.78;;;;;;;2.08;100.00;95723.81;1039166;28;20088;-69
2022/11/15 01:45:31;;;;;;;14.48;8.27;;;;;;;2.00;100.00;95708.53;1042855;28;20421;-70
2022/11/15 01:46:06;;;;;;;11.05;7.28;;;;;;;2.04;100.00;95721.84;1038393;28;20033;-69
2022/11/15 01:46:36;;;;;;;14.68;8.23;;;;;;;2.03;100.00;95713.28;1033920;28;20018;-70
2022/11/15 01:47:15;;;;;;;13.80;8.05;;;;;;;2.01;100.00;95714.50;1026546;28;20278;-69
2022/11/15 01:47:48;;;;;;;12.27;7.93;;;;;;;2.01;100.00;95712.72;1030468;28;20041;-69
2022/11/15 01:48:19;;;;;;;13.02;8.07;;;;;;;1.91;100.00;95702.00;1026163;28;20266;-70
2022/11/15 01:48:50;;;;;;;11.95;8.00;;;;;;;1.88;100.00;95700.66;1022336;29;20278;-70
2022/11/15 01:49:21;;;;;;;11.98;7.78;;;;;;;1.96;100.00;95717.72;1022907;28;20102;-71
2022/11/15 01:50:00;;;;;;;15.43;8.45;;;;;;;1.95;100.00;95716.13;1026595;28;20278;-70
2022/11/15 01:50:31;;;;;;;12.23;7.93;;;;;;;1.76;100.00;95688.59;1023621;28;20290;-70
2022/11/15 01:51:04;;;;;;;13.30;8.45;;;;;;;1.94;100.00;95711.94;1022768;29;20306;-69
2022/11/15 01:51:35;;;;;;;15.15;8.65;;;;;;;1.95;100.00;95713.56;1022222;29;20023;-70
2022/11/15 01:52:08;;;;;;;14.73;8.57;;;;;;;1.96;100.00;95715.13;1025771;28;20266;-70
2022/11/15 01:52:39;;;;;;;17.63;8.98;;;;;;;1.95;100.00;95716.13;1021511;28;20058;-70
2022/11/15 01:53:10;;;;;;;16.05;9.48;;;;;;;1.95;100.00;95710.97;1026835;28;20286;-69
2022/11/15 01:53:41;;;;;;;12.52;8.30;;;;;;;1.92;100.00;95703.63;1026432;28;20035;-69
2022/11/15 01:54:15;;;;;;;13.85;8.40;;;;;;;1.86;100.00;95696.69;1030328;28;20834;-70
2022/11/15 01:54:46;;;;;;;15.30;9.15;;;;;;;1.89;100.00;95709.22;1026048;28;20262;-70
2022/11/15 01:55:20;;;;;;;14.07;9.05;;;;;;;1.90;100.00;95710.78;1026550;28;20270;-70
2022/11/15 01:55:51;;;;;;;15.20;8.38;;;;;;;1.89;100.00;95706.63;1026323;28;20302;-70
2022/11/15 01:56:23;;;;;;;15.05;9.57;;;;;;;1.89;100.00;95710.00;1026661;28;20752;-69
2022/11/15 01:56:59;;;;;;;12.55;8.70;;;;;;;1.84;100.00;95698.69;1023169;28;20808;-70
2022/11/15 01:57:29;;;;;;;13.82;8.82;;;;;;;1.83;100.00;95697.09;1030162;28;20277;-69
2022/11/15 01:58:01;;;;;;;16.23;8.80;;;;;;;1.85;100.00;95705.47;1026562;28;20278;-69
2022/11/15 01:58:32;;;;;;;15.48;9.25;;;;;;;1.84;100.00;95711.63;1026061;28;20031;-70
2022/11/15 01:59:04;;;;;;;13.90;8.65;;;;;;;1.81;100.00;95701.69;1026587;28;20270;-69
2022/11/15 01:59:35;;;;;;;18.10;9.45;;;;;;;1.79;100.00;95703.69;1030327;28;20030;-70
2022/11/15 02:00:06;;;;;;;14.77;8.90;;;;;;;1.81;100.00;95712.84;1034439;28;20367;-70
2022/11/15 02:00:36;;;;;;;16.77;8.77;;;;;;;1.72;100.00;95697.78;1033972;28;20056;-69
2022/11/15 02:01:07;;;;;;;16.40;9.05;;;;;;;1.76;100.00;95709.28;1026400;28;20285;-70
2022/11/15 02:01:37;;;;;;;15.65;9.30;;;;;;;1.76;100.00;95706.69;1022385;29;20151;-70
2022/11/15 02:02:08;;;;;;;14.40;8.02;;;;;;;1.73;100.00;95704.53;1020474;29;20163;-70
2022/11/15 02:02:39;;;;;;;13.02;8.75;;;;;;;1.68;100.00;95699.97;1021694;29;20517;-70
2022/11/15 02:03:09;;;;;;;15.38;8.13;;;;;;;1.63;100.00;95692.81;1022402;29;20039;-70
2022/11/15 02:03:45;;;;;;;15.32;9.25;;;;;;;1.70;100.00;95699.75;1026132;28;20651;-70
2022/11/15 02:04:17;;;;;;;15.27;8.35;;;;;;;1.65;100.00;95688.25;1026428;28;20110;-71
2022/11/15 02:04:47;;;;;;;14.13;8.50;;;;;;;1.63;100.00;95692.03;1026384;28;20770;-70
2022/11/15 02:05:18;;;;;;;13.68;8.52;;;;;;;1.68;100.00;95699.16;1018571;29;20339;-70
2022/11/15 02:05:48;;;;;;;14.48;8.90;;;;;;;1.68;100.00;95704.34;1022540;29;20033;-70
2022/11/15 02:06:18;;;;;;;13.23;8.23;;;;;;;1.60;100.00;95693.25;1030473;28;20029;-70
2022/11/15 02:06:49;;;;;;;17.33;8.60;;;;;;;1.67;100.00;95705.34;1030242;28;20499;-70
2022/11/15 02:07:20;;;;;;;21.58;8.88;;;;;;;1.62;100.00;95696.41;1030206;28;20019;-70
2022/11/15 02:07:50;;;;;;;17.58;8.73;;;;;;;1.63;100.00;95703.16;1026218;28;20011;-70
2022/11/15 02:08:20;;;;;;;15.13;8.30;;;;;;;1.54;100.00;95691.50;1026427;28;20026;-70
2022/11/15 02:08:51;;;;;;;15.82;9.00;;;;;;;1.57;100.00;95701.41;1020188;28;20023;-69
2022/11/15 02:09:21;;;;;;;15.93;9.13;;;;;;;1.56;100.00;95702.41;1026584;28;20011;-70
2022/11/15 02:09:52;;;;;;;14.07;9.15;;;;;;;1.54;100.00;95701.03;1030357;28;20018;-70
2022/11/15 02:10:23;;;;;;;17.30;9.07;;;;;;;1.52;100.00;95703.84;1030448;28;20026;-69
2022/11/15 02:10:54;;;;;;;15.23;8.80;;;;;;;1.49;100.00;95699.06;1030327;28;20088;-69
2022/11/15 02:11:24;;;;;;;18.05;9.65;;;;;;;1.48;100.00;95694.91;1022483;28;20889;-70
2022/11/15 02:11:54;;;;;;;16.90;8.95;;;;;;;1.50;100.00;95698.06;1022213;29;20019;-70
2022/11/15 02:12:25;;;;;;;18.05;9.68;;;;;;;1.49;100.00;95691.31;1022797;28;20016;-70
2022/11/15 02:12:55;;;;;;;16.88;10.00;;;;;;;1.49;100.00;95691.31;1026545;28;20015;-70
2022/11/15 02:13:26;;;;;;;18.20;9.73;;;;;;;1.49;100.00;95693.91;1022335;28;20019;-71
2022/11/15 02:13:56;;;;;;;15.85;9.88;;;;;;;1.49;100.00;95688.72;1019636;28;20028;-70
2022/11/15 02:14:27;;;;;;;15.63;9.43;;;;;;;1.39;100.00;95680.63;1022648;29;20023;-70
2022/11/15 02:14:57;;;;;;;15.63;9.18;;;;;;;1.42;100.00;95683.59;1022305;29;20019;-69
2022/11/15 02:15:32;;;;;;;15.98;8.93;;;;;;;1.45;100.00;95687.56;1018425;29;20015;-69
2022/11/15 02:16:21;;;;;;;16.50;9.10;;;;;;;1.43;100.00;95689.56;1022342;29;20493;-70
2022/11/15 02:16:54;;;;;;;15.38;8.93;;;;;;;1.43;100.00;95686.97;1029563;28;20359;-70
2022/11/15 02:17:50;;;;;;;16.08;9.30;;;;;;;1.38;100.00;95682.41;1031926;28;20265;-70
2022/11/15 02:18:30;;;;;;;16.33;9.55;;;;;;;1.36;100.00;95683.63;1030627;28;20257;-70
2022/11/15 02:19:12;;;;;;;16.33;9.18;;;;;;;1.39;100.00;95688.38;1023264;28;20388;-71
2022/11/15 02:20:19;;;;;;;17.95;9.63;;;;;;;1.35;100.00;95689.81;1033256;28;20265;-70
2022/11/15 02:20:58;;;;;;;16.65;8.85;;;;;;;1.34;100.00;95685.59;1037053;28;20241;-70
2022/11/15 02:21:43;;;;;;;14.15;8.77;;;;;;;1.33;100.00;95682.22;1030172;28;20356;-68
2022/11/15 02:22:42;;;;;;;14.23;7.93;;;;;;;1.31;100.00;95686.03;1025844;28;20296;-69
2022/11/15 02:23:28;;;;;;;13.80;8.68;;;;;;;1.30;100.00;95681.84;1024011;28;20306;-69
2022/11/15 02:24:22;;;;;;;15.75;8.90;;;;;;;1.30;100.00;95679.28;1025622;28;20018;-70
2022/11/15 02:25:08;;;;;;;16.88;8.24;;;;;;;1.28;100.00;95676.13;1037385;28;20249;-69
2022/11/15 02:26:02;;;;;;;17.35;9.55;;;;;;;1.29;100.00;95673.31;1038416;28;20049;-70
2022/11/15 02:26:42;;;;;;;17.80;8.92;;;;;;;1.30;100.00;95674.88;1036514;28;20251;-69
2022/11/15 02:27:37;;;;;;;18.74;10.14;;;;;;;1.29;100.00;95667.34;1035528;28;20030;-69
2022/11/15 02:28:35;;;;;;;17.05;9.98;;;;;;;1.29;100.00;95673.31;1033934;28;20193;-70
2022/11/15 02:29:08;;;;;;;17.63;9.48;;;;;;;1.26;100.00;95668.56;1032867;28;20261;-70
2022/11/15 02:30:06;;;;;;;17.58;9.64;;;;;;;1.26;100.00;95671.13;1026088;28;20262;-70